createdAt,value
2016-04-09T00:17:07.441Z,100723
2016-04-09T00:17:25.022Z,100715
2016-04-09T00:17:42.272Z,100715
2016-04-09T00:17:52.397Z,100712
2016-04-09T00:18:02.585Z,100698
2016-04-09T00:19:04.196Z,100704
2016-04-09T00:19:15.587Z,100712
2016-04-09T00:19:25.730Z,100709
2016-04-09T00:19:35.527Z,100709
2016-04-09T00:20:42.483Z,100717
2016-04-09T00:20:53.249Z,100706
2016-04-09T00:21:03.858Z,100720
2016-04-09T00:21:14.202Z,100715
2016-04-09T00:21:24.705Z,100706
2016-04-09T00:21:34.689Z,100715
2016-04-09T00:22:44.271Z,100717
2016-04-09T00:23:48.694Z,100716
2016-04-09T00:23:58.757Z,100718
2016-04-09T00:24:10.335Z,100713
2016-04-09T00:24:20.429Z,100713
2016-04-09T00:24:30.619Z,100713
2016-04-09T00:24:40.760Z,100718
2016-04-09T00:24:50.729Z,100716
2016-04-09T00:25:01.213Z,100713
2016-04-09T01:57:00.810Z,100695
2016-04-09T01:58:14.046Z,100690
2016-04-09T01:58:31.174Z,100690
2016-04-09T01:58:42.268Z,100687
2016-04-09T01:58:52.940Z,100698
2016-04-09T01:59:03.065Z,100687
2016-04-09T01:59:13.612Z,100692
2016-04-09T01:59:31.740Z,100692
2016-04-09T01:59:42.193Z,100695
2016-04-09T01:59:59.505Z,100695
2016-04-09T02:00:10.677Z,100698
2016-04-09T02:00:28.055Z,100692
2016-04-09T02:00:38.680Z,100692
2016-04-09T02:00:55.883Z,100689
2016-04-09T02:01:13.305Z,100692
2016-04-09T02:01:31.058Z,100687
2016-04-09T02:01:41.042Z,100695
2016-04-09T02:01:50.949Z,100703
2016-04-09T02:02:01.464Z,100698
2016-04-09T02:02:11.636Z,100695
2016-04-09T02:02:21.699Z,100698
2016-04-09T02:03:30.860Z,100690
2016-04-09T02:03:42.079Z,100692
2016-04-09T02:03:52.454Z,100687
2016-04-09T02:04:02.485Z,100692
2016-04-09T02:04:12.704Z,100695
2016-04-09T02:04:22.797Z,100687
2016-04-09T02:04:33.471Z,100687
2016-04-09T02:04:51.221Z,100692
2016-04-09T02:05:02.065Z,100690
2016-04-09T02:06:01.224Z,100703
2016-04-09T02:06:18.724Z,100690
2016-04-09T02:07:21.040Z,100689
2016-04-09T02:07:39.120Z,100689
2016-04-09T02:07:49.089Z,100687
2016-04-09T02:07:59.354Z,100684
2016-04-09T02:09:12.014Z,100690
2016-04-09T02:09:22.795Z,100684
2016-04-09T02:09:33.953Z,100698
2016-04-09T02:09:44.016Z,100690
2016-04-09T02:09:58.703Z,100682
2016-04-09T02:10:09.312Z,100682
2016-04-09T02:10:19.781Z,100690
2016-04-09T02:10:31.815Z,100693
2016-04-09T02:10:42.472Z,100690
2016-04-09T02:10:52.409Z,100690
2016-04-09T02:11:02.378Z,100698
2016-04-09T02:11:22.097Z,100704
2016-04-09T02:13:25.370Z,100685
2016-04-09T02:13:35.386Z,100690
2016-04-09T02:13:45.417Z,100679
2016-04-09T02:13:55.652Z,100690
2016-04-09T02:14:06.105Z,100679
2016-04-09T02:14:16.823Z,100682
2016-04-09T02:14:27.656Z,100687
2016-04-09T02:15:09.609Z,100684
2016-04-09T02:15:20.890Z,100684
2016-04-09T02:15:31.376Z,100684
2016-04-09T02:15:41.876Z,100676
2016-04-09T02:15:51.876Z,100684
2016-04-09T02:16:02.767Z,100692
2016-04-09T02:16:13.829Z,100687
2016-04-09T02:16:24.408Z,100670
2016-04-09T02:16:34.489Z,100684
2016-04-09T02:17:40.226Z,100679
2016-04-09T02:17:51.085Z,100690
2016-04-09T02:18:00.960Z,100679
2016-04-09T02:18:12.210Z,100682
2016-04-09T02:18:22.554Z,100671
2016-04-09T02:18:32.681Z,100676
2016-04-09T02:19:37.778Z,100684
2016-04-09T02:19:47.684Z,100681
2016-04-09T02:19:59.512Z,100673
2016-04-09T02:20:16.872Z,100684
2016-04-09T02:20:27.921Z,100670
2016-04-09T02:20:38.624Z,100681
2016-04-09T02:20:49.014Z,100678
2016-04-09T02:20:58.952Z,100667
2016-04-09T02:21:09.499Z,100676
2016-04-09T02:21:20.780Z,100670
2016-04-09T02:21:31.220Z,100670
2016-04-09T02:22:32.552Z,100673
2016-04-09T02:23:42.789Z,100662
2016-04-09T02:23:52.805Z,100670
2016-04-09T03:54:55.314Z,100657
2016-04-09T03:55:14.611Z,100650
2016-04-09T03:55:25.189Z,100644
2016-04-09T03:55:44.380Z,100652
2016-04-09T03:55:54.973Z,100647
2016-04-09T03:56:05.723Z,100652
2016-04-09T03:56:15.677Z,100650
2016-04-09T03:56:25.929Z,100647
2016-04-09T03:56:42.929Z,100647
2016-04-09T03:56:52.835Z,100647
2016-04-09T03:57:02.679Z,100633
2016-04-09T03:57:13.069Z,100652
2016-04-09T03:57:23.225Z,100647
2016-04-09T03:58:31.387Z,100647
2016-04-09T03:58:41.590Z,100650
2016-04-09T03:58:51.527Z,100655
2016-04-09T04:04:01.886Z,100660
2016-04-09T04:04:12.214Z,100650
2016-04-09T04:04:22.355Z,100650
2016-04-09T04:04:32.169Z,100653
2016-04-09T04:04:42.404Z,100644
2016-04-09T04:04:59.560Z,100650
2016-04-09T04:05:11.107Z,100653
2016-04-09T04:06:16.875Z,100655
2016-04-09T04:06:26.847Z,100650
2016-04-09T04:06:38.097Z,100660
2016-04-09T04:06:48.050Z,100655
2016-04-09T04:06:58.535Z,100655
2016-04-09T04:07:09.175Z,100653
2016-04-09T04:07:25.943Z,100650
2016-04-09T04:07:43.084Z,100650
2016-04-09T04:08:00.740Z,100653
2016-04-09T04:09:07.290Z,100652
2016-04-09T04:09:17.212Z,100655
2016-04-09T04:09:27.854Z,100660
2016-04-09T04:12:50.754Z,100652
2016-04-09T04:13:00.660Z,100655
2016-04-09T04:13:17.551Z,100647
2016-04-09T04:13:27.351Z,100647
2016-04-09T04:13:37.335Z,100647
2016-04-09T04:13:47.226Z,100644
2016-04-09T04:13:56.991Z,100647
2016-04-09T04:14:06.882Z,100649
2016-04-09T04:14:16.976Z,100649
2016-04-09T04:14:26.665Z,100652
2016-04-09T04:14:36.884Z,100647
2016-04-09T04:14:46.618Z,100644
2016-04-09T04:14:59.368Z,100655
2016-04-09T04:15:10.337Z,100657
2016-04-09T04:15:22.306Z,100652
2016-04-09T04:15:32.215Z,100657
2016-04-09T04:15:49.777Z,100665
2016-04-09T04:16:06.684Z,100649
2016-04-09T04:16:16.887Z,100657
2016-04-09T04:16:26.733Z,100655
2016-04-09T04:16:36.623Z,100655
2016-04-09T04:16:47.483Z,100641
2016-04-09T04:16:57.217Z,100652
2016-04-09T04:17:07.029Z,100656
2016-04-09T04:17:16.951Z,100652
2016-04-09T04:17:33.907Z,100655
2016-04-09T04:17:44.376Z,100646
2016-04-09T04:17:54.251Z,100655
2016-04-09T04:18:04.407Z,100649
2016-04-09T04:18:14.345Z,100652
2016-04-09T04:18:25.848Z,100646
2016-04-09T04:18:35.629Z,100652
2016-04-09T04:18:45.410Z,100649
2016-04-09T04:19:07.223Z,100646
2016-04-09T04:19:24.567Z,100652
2016-04-09T04:19:34.459Z,100655
2016-04-09T04:19:44.334Z,100644
2016-04-09T04:19:54.537Z,100644
2016-04-09T04:20:04.506Z,100647
2016-04-09T04:21:19.415Z,100650
2016-04-09T04:21:29.152Z,100650
2016-04-09T04:21:46.292Z,100655
2016-04-09T04:21:56.214Z,100660
2016-04-09T04:22:05.605Z,100657
2016-04-09T04:22:22.871Z,100665
2016-04-09T04:23:30.423Z,100657
2016-04-09T04:23:47.455Z,100655
2016-04-09T04:24:04.470Z,100655
2016-04-09T04:24:15.095Z,100644
2016-04-09T04:25:20.457Z,100655
2016-04-09T04:25:30.867Z,100655
2016-04-09T04:25:40.601Z,100641
2016-04-09T04:25:51.039Z,100647
2016-04-09T04:26:02.383Z,100657
2016-04-09T04:27:10.260Z,100652
2016-04-09T04:27:20.213Z,100647
2016-04-09T04:27:30.044Z,100647
2016-04-09T04:27:41.216Z,100655
2016-04-09T04:27:50.950Z,100652
2016-04-09T05:31:42.388Z,100627
2016-04-09T05:32:51.547Z,100628
2016-04-09T05:33:09.656Z,100628
2016-04-09T05:33:19.734Z,100625
2016-04-09T05:33:31.768Z,100628
2016-04-09T05:33:49.658Z,100628
2016-04-09T05:34:01.643Z,100631
2016-04-09T05:34:11.893Z,100620
2016-04-09T05:34:21.877Z,100622
2016-04-09T05:34:32.083Z,100625
2016-04-09T05:34:42.568Z,100633
2016-04-09T05:34:53.005Z,100628
2016-04-09T05:35:02.880Z,100622
2016-04-09T05:36:09.695Z,100622
2016-04-09T05:37:20.182Z,100622
2016-04-09T05:37:30.576Z,100631
2016-04-09T05:37:48.044Z,100631
2016-04-09T05:38:05.326Z,100620
2016-04-09T05:38:15.044Z,100628
2016-04-09T05:38:24.841Z,100623
2016-04-09T05:38:41.907Z,100634
2016-04-09T05:38:51.750Z,100631
2016-04-09T05:39:01.610Z,100634
2016-04-09T05:39:11.047Z,100626
2016-04-09T05:39:23.047Z,100629
2016-04-09T05:39:40.019Z,100629
2016-04-09T05:39:49.832Z,100637
2016-04-09T05:40:50.349Z,100631
2016-04-09T05:41:07.365Z,100637
2016-04-09T05:41:17.115Z,100634
2016-04-09T05:41:28.352Z,100626
2016-04-09T05:41:46.024Z,100629
2016-04-09T05:41:57.258Z,100637
2016-04-09T05:42:14.821Z,100632
2016-04-09T05:42:24.571Z,100637
2016-04-09T05:42:35.073Z,100629
2016-04-09T05:43:06.417Z,100629
2016-04-09T05:43:16.698Z,100629
2016-04-09T05:44:22.592Z,100626
2016-04-09T05:44:32.641Z,100632
2016-04-09T05:44:42.891Z,100623
2016-04-09T05:44:53.282Z,100631
2016-04-09T05:46:09.862Z,100637
2016-04-09T05:46:22.237Z,100626
2016-04-09T05:46:32.678Z,100626
2016-04-09T05:46:43.162Z,100621
2016-04-09T05:47:49.414Z,100627
2016-04-09T05:48:06.836Z,100621
2016-04-09T05:48:16.664Z,100618
2016-04-09T05:48:27.761Z,100616
2016-04-09T05:48:38.464Z,100621
2016-04-09T05:48:48.355Z,100627
2016-04-09T05:49:05.558Z,100624
2016-04-09T05:49:15.605Z,100621
2016-04-09T05:49:25.542Z,100618
2016-04-09T05:49:36.217Z,100626
2016-04-09T05:50:04.639Z,100621
2016-04-09T05:50:15.623Z,100632
2016-04-09T05:50:26.173Z,100618
2016-04-09T05:50:36.111Z,100618
2016-04-09T05:50:46.470Z,100621
2016-04-09T05:50:56.611Z,100621
2016-04-09T05:51:14.314Z,100616
2016-04-09T05:51:24.236Z,100615
2016-04-09T05:51:34.628Z,100624
2016-04-09T05:51:44.675Z,100618
2016-04-09T05:51:54.691Z,100618
2016-04-09T05:52:06.488Z,100615
2016-04-09T05:52:24.722Z,100629
2016-04-09T05:52:42.428Z,100624
2016-04-09T05:52:52.506Z,100621
2016-04-09T05:53:02.475Z,100615
2016-04-09T06:26:15.706Z,100655
2016-04-09T06:26:26.346Z,100650
2016-04-09T06:26:37.223Z,100658
2016-04-09T06:26:48.020Z,100660
2016-04-09T06:26:58.442Z,100663
2016-04-09T06:27:10.223Z,100655
2016-04-09T06:27:20.379Z,100650
2016-04-09T06:27:30.367Z,100644
2016-04-09T06:27:41.523Z,100650
2016-04-09T06:27:51.476Z,100647
2016-04-09T06:28:01.929Z,100650
2016-04-09T06:28:13.179Z,100653
2016-04-09T06:28:23.570Z,100647
2016-04-09T06:28:33.588Z,100657
2016-04-09T06:28:45.416Z,100650
2016-04-09T06:28:55.619Z,100658
2016-04-09T06:30:10.700Z,100663
2016-04-09T06:31:20.640Z,100653
2016-04-09T06:31:31.158Z,100655
2016-04-09T06:31:48.314Z,100663
2016-04-09T06:32:00.455Z,100657
2016-04-09T06:32:11.674Z,100655
2016-04-09T06:32:22.908Z,100657
2016-04-09T06:32:33.770Z,100655
2016-04-09T06:32:44.239Z,100650
2016-04-09T06:33:01.770Z,100658
2016-04-09T06:34:07.929Z,100660
2016-04-09T06:34:17.866Z,100655
2016-04-09T06:34:30.245Z,100650
2016-04-09T06:34:40.792Z,100657
2016-04-09T06:34:54.823Z,100657
2016-04-09T06:35:49.075Z,100650
2016-04-09T06:36:50.750Z,100647
2016-04-09T06:38:06.597Z,100647
2016-04-09T06:38:17.519Z,100647
2016-04-09T06:38:28.550Z,100650
2016-04-09T06:38:39.536Z,100655
2016-04-09T06:38:49.599Z,100653
2016-04-09T06:38:59.552Z,100650
2016-04-09T06:39:17.755Z,100655
2016-04-09T06:39:34.961Z,100650
2016-04-09T06:39:46.118Z,100648
2016-04-09T06:39:56.930Z,100653
2016-04-09T06:40:10.227Z,100660
2016-04-09T06:40:21.274Z,100655
2016-04-09T06:40:31.838Z,100648
2016-04-09T06:40:41.995Z,100650
2016-04-09T06:40:52.463Z,100648
2016-04-09T06:41:06.651Z,100648
2016-04-09T06:41:25.745Z,100648
2016-04-09T06:41:37.295Z,100653
2016-04-09T06:41:48.608Z,100650
2016-04-09T06:42:06.608Z,100653
2016-04-09T06:42:18.249Z,100647
2016-04-09T06:42:28.467Z,100653
2016-04-09T06:42:46.376Z,100655
2016-04-09T06:42:57.391Z,100653
2016-04-09T06:43:08.672Z,100650
2016-04-09T06:43:26.501Z,100660
2016-04-09T06:43:36.535Z,100653
2016-04-09T06:43:47.550Z,100652
2016-04-09T06:43:58.504Z,100652
2016-04-09T06:44:08.988Z,100660
2016-04-09T08:51:29.534Z,100674
2016-04-09T08:52:36.584Z,100677
2016-04-09T08:53:57.730Z,100680
2016-04-09T08:54:10.683Z,100686
2016-04-09T08:55:26.998Z,100677
2016-04-09T08:55:38.623Z,100669
2016-04-09T09:00:36.949Z,100674
2016-04-09T09:00:53.248Z,100668
2016-04-09T09:01:07.373Z,100668
2016-04-09T09:02:10.892Z,100666
2016-04-09T09:02:30.830Z,100666
2016-04-09T09:03:40.772Z,100669
2016-04-09T09:03:54.788Z,100675
2016-04-09T09:04:09.632Z,100664
2016-04-09T09:05:21.260Z,100678
2016-04-09T09:05:34.338Z,100673
2016-04-09T09:05:45.622Z,100679
2016-04-09T09:06:50.749Z,100662
2016-04-09T09:07:55.081Z,100668
2016-04-09T09:37:00.441Z,100674
2016-04-09T09:39:59.058Z,100671
2016-04-09T09:41:09.060Z,100676
2016-04-09T09:41:20.529Z,100676
2016-04-09T09:41:36.482Z,100663
2016-04-09T09:42:43.441Z,100671
2016-04-09T10:22:23.688Z,100657
2016-04-09T10:22:36.813Z,100655
2016-04-09T10:23:46.238Z,100663
2016-04-09T10:23:57.584Z,100650
2016-04-09T10:24:10.318Z,100666
2016-04-09T10:26:15.903Z,100669
2016-04-09T10:26:29.043Z,100655
2016-04-09T10:27:40.062Z,100648
2016-04-09T10:27:53.937Z,100653
2016-04-09T10:29:50.457Z,100655
2016-04-09T10:30:03.038Z,100651
2016-04-09T10:41:25.397Z,100648
2016-04-09T10:41:40.412Z,100655
2016-04-09T10:41:53.569Z,100651
2016-04-09T10:42:58.652Z,100651
2016-04-09T10:44:13.592Z,100647
2016-04-09T10:45:19.657Z,100651
2016-04-09T10:45:31.329Z,100640
2016-04-09T10:46:36.878Z,100656
2016-04-09T10:46:47.957Z,100646
2016-04-09T10:47:00.630Z,100646
2016-04-09T10:47:12.818Z,100643
2016-04-09T10:47:25.380Z,100645
2016-04-09T10:48:36.415Z,100664
2016-04-09T10:48:49.665Z,100645
2016-04-09T10:49:03.840Z,100648
2016-04-09T10:59:30.553Z,100662
2016-04-09T10:59:43.912Z,100646
2016-04-09T11:00:48.619Z,100651
2016-04-09T11:00:59.622Z,100651
2016-04-09T11:07:38.669Z,100648
2016-04-09T11:08:45.859Z,100645
2016-04-09T11:08:58.894Z,100642
2016-04-09T11:09:14.362Z,100640
2016-04-09T11:09:26.425Z,100651
2016-04-09T11:09:39.519Z,100651
2016-04-09T11:11:38.196Z,100642
2016-04-09T11:11:50.759Z,100645
2016-04-09T11:13:10.325Z,100648
2016-04-09T11:13:21.232Z,100640
2016-04-09T11:13:39.060Z,100646
2016-04-09T11:13:51.294Z,100640
2016-04-09T11:14:06.766Z,100651
2016-04-09T11:14:23.235Z,100646
2016-04-09T11:14:35.188Z,100646
2016-04-09T11:14:48.219Z,100646
2016-04-09T11:15:57.100Z,100651
2016-04-09T11:16:09.538Z,100648
2016-04-09T11:16:45.897Z,100651
2016-04-09T11:16:59.071Z,100639
2016-04-09T11:17:11.149Z,100651
2016-04-09T11:17:25.586Z,100645
2016-04-09T11:18:32.043Z,100639
2016-04-09T11:18:45.996Z,100645
2016-04-09T11:18:56.841Z,100642
2016-04-09T11:19:08.951Z,100642
2016-04-09T11:20:13.438Z,100634
2016-04-09T11:20:40.766Z,100651
2016-04-09T11:26:43.299Z,100651
2016-04-09T11:28:02.132Z,100643
2016-04-09T11:28:15.507Z,100640
2016-04-09T11:44:00.659Z,100646
2016-04-09T11:44:14.331Z,100632
2016-04-09T11:44:30.300Z,100640
2016-04-09T11:46:38.618Z,100651
2016-04-09T11:46:50.383Z,100643
2016-04-09T11:47:02.027Z,100643
2016-04-09T12:02:19.411Z,100641
2016-04-09T12:02:33.223Z,100632
2016-04-09T12:03:41.242Z,100644
2016-04-09T12:04:00.072Z,100633
2016-04-09T12:04:19.634Z,100638
2016-04-09T12:04:34.166Z,100635
2016-04-09T12:04:46.416Z,100638
2016-04-09T12:05:00.231Z,100632
2016-04-09T12:06:13.828Z,100654
2016-04-09T12:07:17.377Z,100632
2016-04-09T12:09:16.758Z,100632
2016-04-09T12:09:28.226Z,100640
2016-04-09T12:09:46.211Z,100637
2016-04-09T12:38:28.070Z,100636
2016-04-09T12:38:38.383Z,100625
2016-04-09T12:38:51.242Z,100625
2016-04-09T12:40:55.076Z,100633
2016-04-09T12:41:21.406Z,100633
2016-04-09T12:42:23.643Z,100613
2016-04-09T12:42:36.502Z,100630
2016-04-09T12:42:48.346Z,100627
2016-04-09T12:42:59.236Z,100625
2016-04-09T12:44:10.305Z,100624
2016-04-09T12:44:22.758Z,100633
2016-04-09T12:44:36.555Z,100627
2016-04-09T12:44:49.914Z,100627
2016-04-09T12:45:06.605Z,100618
2016-04-09T12:46:19.889Z,100624
2016-04-09T12:50:57.743Z,100622
2016-04-09T12:51:17.433Z,100622
2016-04-09T12:51:29.339Z,100622
2016-04-09T12:53:36.064Z,100618
2016-04-09T12:54:40.864Z,100618
2016-04-09T12:54:51.739Z,100621
2016-04-09T12:55:04.429Z,100610
2016-04-09T12:56:14.993Z,100604
2016-04-09T13:42:02.383Z,100603
2016-04-09T13:42:14.664Z,100589
2016-04-09T13:43:17.089Z,100589
2016-04-09T13:43:28.808Z,100594
2016-04-09T13:44:40.185Z,100591
2016-04-09T13:45:47.939Z,100591
2016-04-09T13:45:59.298Z,100591
2016-04-09T13:46:17.847Z,100591
2016-04-09T13:46:30.175Z,100591
2016-04-09T13:46:45.441Z,100586
2016-04-09T13:48:56.947Z,100581
2016-04-09T13:49:15.386Z,100597
2016-04-09T13:49:27.511Z,100591
2016-04-09T13:49:37.964Z,100594
2016-04-09T13:49:50.136Z,100583
2016-04-09T13:51:15.969Z,100586
2016-04-09T13:51:27.813Z,100591
2016-04-09T13:52:42.238Z,100591
2016-04-09T13:53:53.788Z,100578
2016-04-09T13:54:05.088Z,100594
2016-04-09T13:55:25.058Z,100578
2016-04-09T13:55:35.199Z,100586
2016-04-09T13:55:46.777Z,100576
2016-04-09T13:56:00.027Z,100592
2016-04-09T13:57:04.376Z,100581
2016-04-09T13:57:16.548Z,100581
2016-04-09T13:57:27.548Z,100581
2016-04-09T13:57:39.423Z,100570
2016-04-09T13:57:57.407Z,100586
2016-04-09T13:58:09.848Z,100576
2016-04-09T13:59:27.538Z,100586
2016-04-09T13:59:38.632Z,100581
2016-04-09T13:59:49.335Z,100573
2016-04-09T14:37:27.015Z,100572
2016-04-09T14:38:34.581Z,100560
2016-04-09T14:38:53.674Z,100566
2016-04-09T14:39:04.362Z,100563
2016-04-09T14:39:16.568Z,100569
2016-04-09T14:39:37.834Z,100557
2016-04-09T14:40:46.790Z,100560
2016-04-09T14:40:58.696Z,100560
2016-04-09T14:41:09.978Z,100563
2016-04-09T14:41:27.384Z,100560
2016-04-09T14:41:40.791Z,100563
2016-04-09T14:41:52.838Z,100563
2016-04-09T14:42:12.716Z,100563
2016-04-09T14:42:33.809Z,100557
2016-04-09T14:42:46.669Z,100560
2016-04-09T14:43:48.219Z,100566
2016-04-09T14:43:58.890Z,100560
2016-04-09T14:44:11.081Z,100563
2016-04-09T14:54:41.655Z,100568
2016-04-09T14:55:57.907Z,100566
2016-04-09T14:56:59.675Z,100563
2016-04-09T14:58:07.603Z,100557
2016-04-09T14:58:18.244Z,100562
2016-04-09T14:58:31.072Z,100554
2016-04-09T14:59:37.434Z,100551
2016-04-09T14:59:48.934Z,100554
2016-04-09T15:00:05.013Z,100560
2016-04-09T15:01:21.783Z,100574
2016-04-09T15:02:26.582Z,100551
2016-04-09T15:23:04.324Z,100566
2016-04-09T15:23:19.077Z,100566
2016-04-09T15:25:21.207Z,100558
2016-04-09T15:25:32.035Z,100555
2016-04-09T15:26:39.897Z,100555
2016-04-09T15:26:50.381Z,100563
2016-04-09T15:27:03.256Z,100563
2016-04-09T15:27:20.666Z,100558
2016-04-09T15:28:31.746Z,100549
2016-04-09T15:29:41.171Z,100557
2016-04-09T15:29:52.843Z,100560
2016-04-09T15:30:03.780Z,100554
2016-04-09T15:31:09.301Z,100563
2016-04-09T15:31:21.660Z,100552
2016-04-09T15:32:32.726Z,100552
2016-04-09T15:32:44.257Z,100552
2016-04-09T15:32:57.366Z,100555
2016-04-09T15:33:08.915Z,100549
2016-04-09T15:34:18.043Z,100563
2016-04-09T15:34:31.152Z,100552
2016-04-09T15:36:31.643Z,100558
2016-04-09T15:37:42.099Z,100564
2016-04-09T16:07:28.243Z,100571
2016-04-09T16:07:40.884Z,100569
2016-04-09T16:08:02.681Z,100560
2016-04-09T16:08:14.465Z,100569
2016-04-09T16:11:17.119Z,100552
2016-04-09T16:11:34.603Z,100566
2016-04-09T16:11:47.931Z,100560
2016-04-09T16:12:00.103Z,100557
2016-04-09T16:12:16.235Z,100560
2016-04-09T16:13:24.900Z,100560
2016-04-09T16:17:21.686Z,100565
2016-04-09T16:43:46.325Z,100568
2016-04-09T16:43:59.403Z,100554
2016-04-09T16:44:18.719Z,100568
2016-04-09T16:44:29.625Z,100565
2016-04-09T16:44:40.875Z,100560
2016-04-09T16:44:52.969Z,100562
2016-04-09T16:45:04.641Z,100554
2016-04-09T16:45:20.316Z,100562
2016-04-09T16:45:31.956Z,100557
2016-04-09T16:45:42.128Z,100565
2016-04-09T16:45:52.941Z,100559
2016-04-09T16:47:00.802Z,100562
2016-04-09T16:48:23.854Z,100565
2016-04-09T16:48:34.838Z,100557
2016-04-09T16:48:46.979Z,100562
2016-04-09T16:48:58.276Z,100557
2016-04-09T16:49:12.576Z,100554
2016-04-09T16:49:22.607Z,100560
2016-04-09T16:49:35.029Z,100562
2016-04-09T16:49:50.919Z,100551
2016-04-09T16:50:02.466Z,100565
2016-04-09T16:50:18.141Z,100559
2016-04-09T17:02:21.970Z,100576
2016-04-09T17:02:36.986Z,100573
2016-04-09T17:03:45.425Z,100567
2016-04-09T17:03:57.347Z,100562
2016-04-09T17:05:10.353Z,100573
2016-04-09T17:05:27.681Z,100556
2016-04-09T17:05:48.041Z,100576
2016-04-09T17:05:59.525Z,100568
2016-04-09T17:07:05.106Z,100567
2016-04-09T17:08:16.705Z,100573
2016-04-09T17:08:29.627Z,100564
2016-04-09T17:08:42.080Z,100564
2016-04-09T17:08:56.908Z,100562
2016-04-09T17:09:11.208Z,100573
2016-04-09T17:10:21.055Z,100564
2016-04-09T17:10:32.898Z,100559
2016-04-09T17:28:40.446Z,100581
2016-04-09T17:47:11.573Z,100607
2016-04-09T17:53:35.889Z,100598
2016-04-09T17:55:44.081Z,100607
2016-04-09T18:05:51.140Z,100620
2016-04-09T18:06:02.828Z,100617
2016-04-09T18:13:08.503Z,100626
2016-04-09T18:13:19.381Z,100634
2016-04-09T18:13:37.146Z,100626
2016-04-09T18:13:47.553Z,100623
2016-04-09T18:14:56.181Z,100628
2016-04-09T18:15:08.134Z,100623
2016-04-09T18:15:21.168Z,100620
2016-04-09T18:34:35.781Z,100648
2016-04-09T18:34:46.077Z,100642
2016-04-09T18:42:08.768Z,100642
2016-04-09T18:42:19.912Z,100639
2016-04-09T18:42:30.412Z,100648
2016-04-09T18:42:40.896Z,100642
2016-04-09T18:42:58.568Z,100639
2016-04-09T18:43:15.821Z,100648
2016-04-09T18:43:27.134Z,100639
2016-04-09T18:43:37.696Z,100633
2016-04-09T18:58:37.392Z,100655
2016-04-09T18:58:48.252Z,100642
2016-04-09T18:59:07.346Z,100647
2016-04-09T18:59:17.988Z,100648
2016-04-09T19:00:29.320Z,100655
2016-04-09T19:01:33.150Z,100657
2016-04-09T19:01:44.479Z,100655
2016-04-09T19:01:55.088Z,100642
2016-04-09T19:02:05.604Z,100644
2016-04-09T19:02:40.107Z,100647
2016-04-09T19:02:52.450Z,100645
2016-04-09T19:03:03.028Z,100653
2016-04-09T19:03:13.591Z,100647
2016-04-09T19:03:24.672Z,100658
2016-04-09T19:03:38.453Z,100653
2016-04-09T19:03:48.735Z,100650
2016-04-09T19:03:59.141Z,100655
2016-04-09T19:04:16.941Z,100653
2016-04-09T19:04:27.347Z,100655
2016-04-09T19:04:38.050Z,100660
2016-04-09T19:11:45.537Z,100666
2016-04-09T19:11:55.709Z,100657
2016-04-09T19:12:07.209Z,100655
2016-04-09T19:12:17.914Z,100650
2016-04-09T19:19:21.199Z,100657
2016-04-09T19:19:31.184Z,100655
2016-04-09T19:19:47.606Z,100655
2016-04-09T19:19:56.809Z,100652
2016-04-09T19:20:07.637Z,100659
2016-04-09T19:20:18.186Z,100649
2016-04-09T19:21:06.936Z,100647
2016-04-09T19:21:17.828Z,100644
2016-04-09T19:21:27.094Z,100649
2016-04-09T19:21:37.235Z,100641
2016-04-09T19:21:47.282Z,100647
2016-04-09T19:21:57.344Z,100657
2016-04-09T19:22:14.157Z,100652
2016-04-09T19:23:20.506Z,100659
2016-04-09T19:23:30.913Z,100644
2016-04-09T19:23:40.241Z,100652
2016-04-09T19:24:44.962Z,100652
2016-04-09T19:24:55.587Z,100655
2016-04-09T19:25:06.744Z,100649
2016-04-09T19:26:10.481Z,100647
2016-04-09T19:26:20.031Z,100652
2016-04-09T19:27:30.549Z,100655
2016-04-09T19:28:38.707Z,100649
2016-04-09T19:28:48.738Z,100647
2016-04-09T19:28:58.441Z,100655
2016-04-09T19:29:08.066Z,100650
2016-04-09T19:30:44.791Z,100647
2016-04-09T19:31:49.153Z,100650
2016-04-09T19:32:02.810Z,100641
2016-04-09T19:32:19.249Z,100655
2016-04-09T19:32:29.405Z,100647
2016-04-09T19:32:53.515Z,100644
2016-04-09T19:33:02.952Z,100657
2016-04-09T19:33:16.346Z,100657
2016-04-09T19:33:26.049Z,100649
2016-04-09T19:33:35.908Z,100649
2016-04-09T19:33:47.049Z,100652
2016-04-09T19:33:56.408Z,100638
2016-04-09T19:34:06.705Z,100649
2016-04-09T19:34:16.302Z,100641
2016-04-09T19:34:25.583Z,100649
2016-04-09T19:34:35.302Z,100646
2016-04-09T19:34:45.052Z,100644
2016-04-09T19:34:57.630Z,100649
2016-04-09T19:35:08.114Z,100655
2016-04-09T19:35:19.227Z,100646
2016-04-09T19:35:28.508Z,100641
2016-04-09T19:35:38.383Z,100644
2016-04-09T19:35:48.649Z,100644
2016-04-09T19:35:59.867Z,100641
2016-04-09T19:36:09.742Z,100646
2016-04-09T19:36:21.526Z,100649
2016-04-09T19:36:31.182Z,100644
2016-04-09T19:36:40.573Z,100638
2016-04-09T19:36:58.713Z,100635
2016-04-09T19:37:08.229Z,100649
2016-04-09T19:37:18.060Z,100641
2016-04-09T19:37:27.544Z,100646
2016-04-09T19:37:44.576Z,100649
2016-04-09T20:19:15.279Z,100667
2016-04-09T20:19:25.345Z,100670
2016-04-09T20:19:36.595Z,100664
2016-04-09T20:19:48.251Z,100664
2016-04-09T20:41:33.076Z,100675
2016-04-09T20:41:44.357Z,100675
2016-04-09T20:41:54.388Z,100672
2016-04-09T20:42:04.419Z,100672
2016-04-09T20:42:14.544Z,100667
2016-04-09T20:42:25.594Z,100673
2016-04-09T20:42:35.672Z,100675
2016-04-09T20:42:45.735Z,100673
2016-04-09T20:42:55.813Z,100675
2016-04-09T20:43:06.922Z,100681
2016-04-09T20:43:16.969Z,100673
2016-04-09T20:43:27.285Z,100659
2016-04-09T20:43:46.285Z,100667
2016-04-09T20:43:56.457Z,100670
2016-04-09T20:44:06.504Z,100664
2016-04-09T20:44:17.160Z,100675
2016-04-09T20:44:27.115Z,100672
2016-04-09T20:44:37.084Z,100667
2016-04-09T20:53:00.278Z,100680
2016-04-09T20:53:10.184Z,100675
2016-04-09T20:53:20.499Z,100666
2016-04-09T20:53:31.140Z,100669
2016-04-09T20:53:41.671Z,100678
2016-04-09T20:53:51.624Z,100680
2016-04-09T20:54:01.577Z,100683
2016-04-09T20:54:11.749Z,100675
2016-04-09T20:54:21.626Z,100669
2016-04-09T20:54:31.579Z,100661
2016-04-09T20:54:41.579Z,100666
2016-04-09T20:54:51.564Z,100677
2016-04-09T20:55:08.970Z,100669
2016-04-09T20:55:21.004Z,100672
2016-04-09T20:55:30.973Z,100666
2016-04-09T20:55:41.879Z,100672
2016-04-09T20:55:59.161Z,100669
2016-04-09T20:56:09.192Z,100674
2016-04-09T20:56:19.163Z,100672
2016-04-09T20:56:29.944Z,100674
2016-04-09T20:56:40.006Z,100663
2016-04-09T20:56:50.834Z,100669
2016-04-09T20:57:01.366Z,100669